createdAt,value
2023-08-25T00:01:17.778Z,12.40
2023-08-25T00:03:44.469Z,11.40
2023-08-25T00:06:11.157Z,11.20
2023-08-25T00:08:37.985Z,10.50
2023-08-25T00:11:04.801Z,11.90
2023-08-25T00:13:33.035Z,11.50
2023-08-25T00:16:00.923Z,12.20
2023-08-25T00:18:27.832Z,11.90
2023-08-25T00:20:54.363Z,10.60
2023-08-25T00:23:20.913Z,11.00
2023-08-25T00:25:47.862Z,11.70
2023-08-25T00:28:14.377Z,10.80
2023-08-25T00:30:40.832Z,11.90
2023-08-25T00:33:07.445Z,13.80
2023-08-25T00:35:33.944Z,12.70
2023-08-25T00:38:00.458Z,12.00
2023-08-25T00:40:26.890Z,10.50
2023-08-25T00:42:53.346Z,11.20
2023-08-25T00:45:20.157Z,11.50
2023-08-25T00:47:46.645Z,12.90
2023-08-25T00:50:14.814Z,12.10
2023-08-25T00:52:41.423Z,12.30
2023-08-25T00:55:08.299Z,11.60
2023-08-25T00:57:35.915Z,12.30
2023-08-25T01:00:05.052Z,11.40
2023-08-25T01:02:32.399Z,11.60
2023-08-25T01:04:59.161Z,12.50
2023-08-25T01:07:25.799Z,11.60
2023-08-25T01:09:52.386Z,10.20
2023-08-25T01:12:28.549Z,10.30
2023-08-25T01:15:05.028Z,10.40
2023-08-25T01:18:11.111Z,11.10
2023-08-25T01:20:38.011Z,12.40
2023-08-25T01:23:19.692Z,10.30
2023-08-25T01:25:47.391Z,10.80
2023-08-25T01:28:14.068Z,11.60
2023-08-25T01:30:40.706Z,10.40
2023-08-25T01:33:07.380Z,11.30
2023-08-25T01:35:48.438Z,10.30
2023-08-25T01:38:23.363Z,9.80
2023-08-25T01:40:59.931Z,9.90
2023-08-25T01:43:28.590Z,10.30
2023-08-25T01:45:56.680Z,10.30
2023-08-25T01:48:23.333Z,10.50
2023-08-25T01:50:50.051Z,10.70
2023-08-25T01:53:16.661Z,10.50
2023-08-25T01:55:43.099Z,11.00
2023-08-25T01:58:09.820Z,10.60
2023-08-25T02:00:36.221Z,9.90
2023-08-25T02:03:03.443Z,11.20
2023-08-25T02:05:29.914Z,11.40
2023-08-25T02:07:56.484Z,12.10
2023-08-25T02:10:23.037Z,11.00
2023-08-25T02:12:50.234Z,10.00
2023-08-25T02:15:17.381Z,10.80
2023-08-25T02:17:44.543Z,10.90
2023-08-25T02:20:11.174Z,9.70
2023-08-25T02:22:38.529Z,11.00
2023-08-25T02:25:05.254Z,10.80
2023-08-25T02:27:32.553Z,11.00
2023-08-25T02:29:58.944Z,10.30
2023-08-25T02:32:25.426Z,11.10
2023-08-25T02:34:51.912Z,10.50
2023-08-25T02:37:18.269Z,9.10
2023-08-25T02:39:44.730Z,9.90
2023-08-25T02:42:12.660Z,10.90
2023-08-25T02:44:39.188Z,10.50
2023-08-25T02:47:05.859Z,11.60
2023-08-25T02:49:32.409Z,10.60
2023-08-25T02:51:59.094Z,11.30
2023-08-25T02:54:25.607Z,10.80
2023-08-25T02:56:52.006Z,12.00
2023-08-25T02:59:18.594Z,11.90
2023-08-25T03:01:45.062Z,12.40
2023-08-25T03:04:11.677Z,13.00
2023-08-25T03:06:38.065Z,12.10
2023-08-25T03:09:05.413Z,15.70
2023-08-25T03:11:31.966Z,21.00
2023-08-25T03:14:00.366Z,13.40
2023-08-25T03:16:27.704Z,11.20
2023-08-25T03:18:54.869Z,12.30
2023-08-25T03:21:22.224Z,11.80
2023-08-25T03:23:48.658Z,12.10
2023-08-25T03:26:15.086Z,12.20
2023-08-25T03:28:41.476Z,9.90
2023-08-25T03:31:08.088Z,10.50
2023-08-25T03:33:34.689Z,10.20
2023-08-25T03:36:01.056Z,10.30
2023-08-25T03:38:27.436Z,10.60
2023-08-25T03:41:00.486Z,10.60
2023-08-25T03:43:26.971Z,11.00
2023-08-25T03:45:53.538Z,11.60
2023-08-25T03:48:20.513Z,10.10
2023-08-25T03:50:47.709Z,11.90
2023-08-25T03:53:14.865Z,12.10
2023-08-25T03:55:41.340Z,12.50
2023-08-25T03:58:07.753Z,12.00
2023-08-25T04:00:34.643Z,11.10
2023-08-25T04:03:01.135Z,12.40
2023-08-25T04:05:27.804Z,11.50
2023-08-25T04:07:56.290Z,10.40
2023-08-25T04:10:23.953Z,11.00
2023-08-25T04:12:50.794Z,12.20
2023-08-25T04:15:21.114Z,12.20
2023-08-25T04:17:47.811Z,11.00
2023-08-25T04:20:17.676Z,9.50
2023-08-25T04:22:44.340Z,10.00
2023-08-25T04:25:10.970Z,10.30
2023-08-25T04:27:37.479Z,9.80
2023-08-25T04:30:05.155Z,9.50
2023-08-25T04:32:32.064Z,9.80
2023-08-25T04:34:58.910Z,9.90
2023-08-25T04:37:25.482Z,9.10
2023-08-25T04:39:55.518Z,10.60
2023-08-25T04:42:22.712Z,9.60
2023-08-25T04:44:49.413Z,11.40
2023-08-25T04:47:16.673Z,11.30
2023-08-25T04:49:43.667Z,9.50
2023-08-25T04:52:11.059Z,13.50
2023-08-25T04:54:37.588Z,10.70
2023-08-25T04:57:04.489Z,13.50
2023-08-25T04:59:31.247Z,17.30
2023-08-25T05:01:57.695Z,11.40
2023-08-25T05:04:24.266Z,11.20
2023-08-25T05:06:50.660Z,11.60
2023-08-25T05:09:17.976Z,10.80
2023-08-25T05:11:44.797Z,12.40
2023-08-25T05:14:12.443Z,11.50
2023-08-25T05:16:40.311Z,11.00
2023-08-25T05:19:14.375Z,13.10
2023-08-25T05:21:41.260Z,11.60
2023-08-25T05:24:35.246Z,14.10
2023-08-25T05:27:03.522Z,10.00
2023-08-25T05:29:30.058Z,32.20
2023-08-25T05:32:00.688Z,20.50
2023-08-25T05:34:46.130Z,12.60
2023-08-25T05:37:13.425Z,18.30
2023-08-25T05:39:40.118Z,13.90
2023-08-25T05:42:08.492Z,13.30
2023-08-25T05:44:35.851Z,10.50
2023-08-25T05:47:02.407Z,9.00
2023-08-25T05:49:29.179Z,10.10
2023-08-25T05:51:56.275Z,8.30
2023-08-25T05:54:22.739Z,7.70
2023-08-25T05:56:49.771Z,7.20
2023-08-25T05:59:16.189Z,7.20
2023-08-25T06:01:42.716Z,6.90
2023-08-25T06:04:09.453Z,6.40
2023-08-25T06:06:38.994Z,5.50
2023-08-25T06:09:05.968Z,5.90
2023-08-25T06:11:32.583Z,6.50
2023-08-25T06:13:59.117Z,4.40
2023-08-25T06:16:27.186Z,4.90
2023-08-25T06:18:53.855Z,4.20
2023-08-25T06:21:20.389Z,5.00
2023-08-25T06:23:48.733Z,4.90
2023-08-25T06:26:15.257Z,4.80
2023-08-25T06:28:41.778Z,4.70
2023-08-25T06:31:08.723Z,4.10
2023-08-25T06:33:35.288Z,4.80
2023-08-25T06:36:01.731Z,4.50
2023-08-25T06:38:28.995Z,3.80
2023-08-25T06:40:56.325Z,3.80
2023-08-25T06:43:22.861Z,4.00
2023-08-25T06:45:49.483Z,6.30
2023-08-25T06:48:16.427Z,4.50
2023-08-25T06:50:43.023Z,3.80
2023-08-25T06:53:09.518Z,4.40
2023-08-25T06:55:36.057Z,3.70
2023-08-25T06:58:07.801Z,4.30
2023-08-25T07:00:34.756Z,4.10
2023-08-25T07:03:02.594Z,3.80
2023-08-25T07:05:31.461Z,4.30
2023-08-25T07:07:59.107Z,4.00
2023-08-25T07:10:25.707Z,9.30
2023-08-25T07:12:52.218Z,4.00
2023-08-25T07:15:19.702Z,4.00
2023-08-25T07:17:47.768Z,3.50
2023-08-25T07:20:14.184Z,4.60
2023-08-25T07:22:40.988Z,3.90
2023-08-25T07:25:08.251Z,3.50
2023-08-25T07:27:34.793Z,3.50
2023-08-25T07:30:01.666Z,4.00
2023-08-25T07:32:28.877Z,3.60
2023-08-25T07:34:56.569Z,3.20
2023-08-25T07:37:23.265Z,3.50
2023-08-25T07:39:51.682Z,4.00
2023-08-25T07:42:18.195Z,4.00
2023-08-25T07:44:44.917Z,3.80
2023-08-25T07:47:11.516Z,3.40
2023-08-25T07:49:38.750Z,3.90
2023-08-25T07:52:05.299Z,3.80
2023-08-25T07:54:31.849Z,3.80
2023-08-25T07:56:59.052Z,3.30
2023-08-25T07:59:25.641Z,3.20
2023-08-25T08:01:52.037Z,2.90
2023-08-25T08:04:18.775Z,3.50
2023-08-25T08:06:45.848Z,3.70
2023-08-25T08:09:12.394Z,3.00
2023-08-25T08:11:39.532Z,2.60
2023-08-25T08:14:06.046Z,2.90
2023-08-25T08:16:35.680Z,3.40
2023-08-25T08:21:32.379Z,4.80
2023-08-25T08:23:58.789Z,3.30
2023-08-25T08:26:25.964Z,3.20
2023-08-25T08:28:52.403Z,4.30
2023-08-25T08:31:19.483Z,3.40
2023-08-25T08:33:48.045Z,3.30
2023-08-25T08:36:17.790Z,3.00
2023-08-25T08:38:44.245Z,3.30
2023-08-25T08:41:11.043Z,3.00
2023-08-25T08:43:38.858Z,3.30
2023-08-25T08:46:05.417Z,4.00
2023-08-25T08:48:33.145Z,3.20
2023-08-25T08:51:00.335Z,3.40
2023-08-25T08:53:27.476Z,3.00
2023-08-25T08:55:54.565Z,3.40
2023-08-25T08:58:21.915Z,4.10
2023-08-25T09:00:48.283Z,3.80
2023-08-25T09:03:18.934Z,3.90
2023-08-25T09:05:45.748Z,2.90
2023-08-25T09:08:12.283Z,3.00
2023-08-25T09:10:38.746Z,3.30
2023-08-25T09:13:05.501Z,3.10
2023-08-25T09:15:35.078Z,5.90
2023-08-25T09:18:07.078Z,2.90
2023-08-25T09:20:35.824Z,3.60
2023-08-25T09:23:03.291Z,2.80
2023-08-25T09:25:29.905Z,3.20
2023-08-25T09:28:02.741Z,3.60
2023-08-25T09:30:40.494Z,4.30
2023-08-25T09:33:08.862Z,3.10
2023-08-25T09:35:35.713Z,3.00
2023-08-25T09:38:03.030Z,3.10
2023-08-25T09:40:30.028Z,3.80
2023-08-25T09:43:00.258Z,2.70
2023-08-25T09:45:28.375Z,5.90
2023-08-25T09:48:10.817Z,3.80
2023-08-25T09:50:39.045Z,2.80
2023-08-25T09:53:10.128Z,2.90
2023-08-25T09:55:37.903Z,3.40
2023-08-25T09:58:05.050Z,3.30
2023-08-25T10:00:34.289Z,3.50
2023-08-25T10:03:02.142Z,3.30
2023-08-25T10:05:30.276Z,3.40
2023-08-25T10:07:57.381Z,2.60
2023-08-25T10:10:24.397Z,3.20
2023-08-25T10:12:51.094Z,3.30
2023-08-25T10:15:18.034Z,2.80
2023-08-25T10:17:45.885Z,3.30
2023-08-25T10:20:14.690Z,2.60
2023-08-25T10:22:46.135Z,2.90
2023-08-25T10:25:12.554Z,2.40
2023-08-25T10:27:39.138Z,3.00
2023-08-25T10:30:06.726Z,2.50
2023-08-25T10:32:55.796Z,2.60
2023-08-25T10:35:41.979Z,2.10
2023-08-25T10:38:20.229Z,2.10
2023-08-25T10:40:50.219Z,3.30
2023-08-25T10:43:24.438Z,2.50
2023-08-25T10:45:51.964Z,3.00
2023-08-25T10:48:34.345Z,3.20
2023-08-25T10:51:19.334Z,3.10
2023-08-25T10:53:46.557Z,3.30
2023-08-25T10:56:24.105Z,3.50
2023-08-25T10:58:57.175Z,3.40
2023-08-25T11:01:28.487Z,3.70
2023-08-25T11:04:13.912Z,3.50
2023-08-25T11:06:50.831Z,3.50
2023-08-25T11:09:20.817Z,3.30
2023-08-25T11:11:48.089Z,3.40
2023-08-25T11:14:15.045Z,2.90
2023-08-25T11:16:42.277Z,3.40
2023-08-25T11:19:12.025Z,2.40
2023-08-25T11:21:38.640Z,3.40
2023-08-25T11:24:05.474Z,3.40
2023-08-25T11:26:34.699Z,2.70
2023-08-25T11:29:01.339Z,2.40
2023-08-25T11:31:27.791Z,2.80
2023-08-25T11:33:55.571Z,2.40
2023-08-25T11:36:25.308Z,2.80
2023-08-25T11:38:51.815Z,3.10
2023-08-25T11:41:18.643Z,2.60
2023-08-25T11:43:48.164Z,2.70
2023-08-25T11:46:15.676Z,2.70
2023-08-25T11:48:42.194Z,2.90
2023-08-25T11:51:14.160Z,2.30
2023-08-25T11:53:41.491Z,2.80
2023-08-25T11:56:08.059Z,2.80
2023-08-25T11:58:35.625Z,2.30
2023-08-25T12:01:09.876Z,2.60
2023-08-25T12:03:37.269Z,2.40
2023-08-25T12:06:07.400Z,2.30
2023-08-25T12:08:34.604Z,2.50
2023-08-25T12:11:01.869Z,2.30
2023-08-25T12:13:34.523Z,2.30
2023-08-25T12:16:05.246Z,2.80
2023-08-25T12:18:35.789Z,2.10
2023-08-25T12:21:04.208Z,2.70
2023-08-25T12:23:36.966Z,2.60
2023-08-25T12:26:08.466Z,2.80
2023-08-25T12:28:35.122Z,2.40
2023-08-25T12:31:01.996Z,2.60
2023-08-25T12:33:29.041Z,2.40
2023-08-25T12:35:55.680Z,2.50
2023-08-25T12:38:22.180Z,2.60
2023-08-25T12:40:48.691Z,2.90
2023-08-25T12:43:15.284Z,2.50
2023-08-25T12:45:41.901Z,2.30
2023-08-25T12:48:08.905Z,2.50
2023-08-25T12:50:36.291Z,2.40
2023-08-25T12:53:03.570Z,2.90
2023-08-25T12:55:30.400Z,2.50
2023-08-25T12:57:57.845Z,2.60
2023-08-25T13:00:24.932Z,2.60
2023-08-25T13:02:54.011Z,2.80
2023-08-25T13:05:21.683Z,2.70
2023-08-25T13:07:48.686Z,3.90
2023-08-25T13:10:15.125Z,5.30
2023-08-25T13:12:41.893Z,4.20
2023-08-25T13:15:11.193Z,3.10
2023-08-25T13:17:38.329Z,3.10
2023-08-25T13:20:06.823Z,3.10
2023-08-25T13:22:33.769Z,3.30
2023-08-25T13:25:00.903Z,4.40
2023-08-25T13:27:28.632Z,2.70
2023-08-25T13:29:55.484Z,2.90
2023-08-25T13:32:22.488Z,2.60
2023-08-25T13:34:49.468Z,4.50
2023-08-25T13:37:17.539Z,4.30
2023-08-25T13:39:44.343Z,3.10
2023-08-25T13:42:10.862Z,2.70
2023-08-25T13:44:38.738Z,2.70
2023-08-25T13:47:07.899Z,3.50
2023-08-25T13:49:34.986Z,2.90
2023-08-25T13:52:01.560Z,2.60
2023-08-25T13:54:28.861Z,3.00
2023-08-25T13:56:57.870Z,2.50
2023-08-25T13:59:25.738Z,2.60
2023-08-25T14:01:52.479Z,2.70
2023-08-25T14:04:19.184Z,3.10
2023-08-25T14:06:45.722Z,2.70
2023-08-25T14:09:12.259Z,2.30
2023-08-25T14:11:38.816Z,2.90
2023-08-25T14:14:05.488Z,3.40
2023-08-25T14:16:34.657Z,2.60
2023-08-25T14:19:01.484Z,2.10
2023-08-25T14:21:28.050Z,2.70
2023-08-25T14:23:54.463Z,2.80
2023-08-25T14:26:21.222Z,3.00
2023-08-25T14:28:47.960Z,2.90
2023-08-25T14:31:14.563Z,2.30
2023-08-25T14:33:41.100Z,2.70
2023-08-25T14:36:07.556Z,2.50
2023-08-25T14:38:34.083Z,2.50
2023-08-25T14:41:00.650Z,2.40
2023-08-25T14:43:27.059Z,2.60
2023-08-25T14:45:53.767Z,2.60
2023-08-25T14:48:20.889Z,2.70
2023-08-25T14:50:57.876Z,2.30
2023-08-25T14:53:24.630Z,2.30
2023-08-25T14:55:51.334Z,2.60
2023-08-25T14:58:18.503Z,2.50
2023-08-25T15:00:47.899Z,2.10
2023-08-25T15:03:14.546Z,2.30
2023-08-25T15:05:41.454Z,2.30
2023-08-25T15:08:08.477Z,2.50
2023-08-25T15:10:35.250Z,2.80
2023-08-25T15:13:01.811Z,2.70
2023-08-25T15:15:29.273Z,5.00
2023-08-25T15:17:56.639Z,3.20
2023-08-25T15:20:23.397Z,2.50
2023-08-25T15:22:50.330Z,3.40
2023-08-25T15:25:16.867Z,2.90
2023-08-25T15:27:43.536Z,2.80
2023-08-25T15:30:11.034Z,2.90
2023-08-25T15:32:37.831Z,3.20
2023-08-25T15:35:04.964Z,2.50
2023-08-25T15:37:32.316Z,2.80
2023-08-25T15:39:59.069Z,2.80
2023-08-25T15:42:27.334Z,2.70
2023-08-25T15:44:54.019Z,3.10
2023-08-25T15:47:20.763Z,3.00
2023-08-25T15:49:47.470Z,2.60
2023-08-25T15:52:14.480Z,2.90
2023-08-25T15:54:40.934Z,2.80
2023-08-25T15:57:07.515Z,2.70
2023-08-25T15:59:35.501Z,3.10
2023-08-25T16:02:02.911Z,2.80
2023-08-25T16:04:29.900Z,2.90
2023-08-25T16:06:56.516Z,3.30
2023-08-25T16:09:23.225Z,3.10
2023-08-25T16:11:50.940Z,2.90
2023-08-25T16:14:20.501Z,3.40
2023-08-25T16:16:48.594Z,3.50
2023-08-25T16:19:16.081Z,3.00
2023-08-25T16:21:43.098Z,2.70
2023-08-25T16:24:09.470Z,3.10
2023-08-25T16:26:36.041Z,3.20
2023-08-25T16:29:03.073Z,2.70
2023-08-25T16:31:30.775Z,2.70
2023-08-25T16:33:57.661Z,3.70
2023-08-25T16:36:24.378Z,3.30
2023-08-25T16:38:51.065Z,3.60
2023-08-25T16:41:17.549Z,3.90
2023-08-25T16:43:44.014Z,10.20
2023-08-25T16:46:10.713Z,6.70
2023-08-25T16:48:37.179Z,11.70
2023-08-25T16:51:03.621Z,11.50
2023-08-25T16:53:30.283Z,17.00
2023-08-25T16:55:59.367Z,15.80
2023-08-25T16:58:27.684Z,12.60
2023-08-25T17:00:54.596Z,8.90
2023-08-25T17:03:21.287Z,9.50
2023-08-25T17:05:47.958Z,10.30
2023-08-25T17:08:14.819Z,12.50
2023-08-25T17:10:42.687Z,10.40
2023-08-25T17:13:09.380Z,12.60
2023-08-25T17:15:37.725Z,8.50
2023-08-25T17:18:05.100Z,9.20
2023-08-25T17:20:31.690Z,14.70
2023-08-25T17:22:58.162Z,15.30
2023-08-25T17:25:26.213Z,12.50
2023-08-25T17:27:54.134Z,13.30
2023-08-25T17:30:21.477Z,11.10
2023-08-25T17:32:48.245Z,8.60
2023-08-25T17:35:14.982Z,8.80
2023-08-25T17:37:41.749Z,8.10
2023-08-25T17:40:08.908Z,7.60
2023-08-25T17:42:35.495Z,7.50
2023-08-25T17:45:02.216Z,6.80
2023-08-25T17:47:29.180Z,5.10
2023-08-25T17:49:55.770Z,6.00
2023-08-25T17:52:22.336Z,5.70
2023-08-25T17:54:48.884Z,4.90
2023-08-25T17:57:15.725Z,5.50
2023-08-25T17:59:42.458Z,5.70
2023-08-25T18:02:10.385Z,8.10
2023-08-25T18:04:38.020Z,10.00
2023-08-25T18:07:05.157Z,10.20
2023-08-25T18:09:32.073Z,9.50
2023-08-25T18:12:00.489Z,9.00
2023-08-25T18:14:27.200Z,11.40
2023-08-25T18:16:54.510Z,7.80
2023-08-25T18:19:21.442Z,6.40
2023-08-25T18:21:48.277Z,6.20
2023-08-25T18:24:15.041Z,7.50
2023-08-25T18:26:44.178Z,9.20
2023-08-25T18:29:11.852Z,13.60
2023-08-25T18:31:39.790Z,12.20
2023-08-25T18:34:06.391Z,11.90
2023-08-25T18:36:34.308Z,16.40
2023-08-25T18:39:01.573Z,14.30
2023-08-25T18:41:28.517Z,10.50
2023-08-25T18:43:55.327Z,11.70
2023-08-25T18:46:22.470Z,8.90
2023-08-25T18:48:50.698Z,8.30
2023-08-25T18:51:17.644Z,8.20
2023-08-25T18:53:44.416Z,7.90
2023-08-25T18:56:12.267Z,7.50
2023-08-25T18:58:39.131Z,8.20
2023-08-25T19:01:06.204Z,7.10
2023-08-25T19:03:33.037Z,8.40
2023-08-25T19:06:03.855Z,8.20
2023-08-25T19:08:31.876Z,8.10
2023-08-25T19:11:01.629Z,7.80
2023-08-25T19:13:28.412Z,9.50
2023-08-25T19:15:59.889Z,8.20
2023-08-25T19:20:59.778Z,8.90
2023-08-25T19:23:32.642Z,8.50
2023-08-25T19:25:59.998Z,8.70
2023-08-25T19:28:26.693Z,9.60
2023-08-25T19:30:53.362Z,9.60
2023-08-25T19:33:19.836Z,9.80
2023-08-25T19:35:56.001Z,9.80
2023-08-25T19:38:22.588Z,9.70
2023-08-25T19:40:49.154Z,8.90
2023-08-25T19:43:15.634Z,9.40
2023-08-25T19:45:43.319Z,12.80
2023-08-25T19:48:10.473Z,13.30
2023-08-25T19:50:38.688Z,12.20
2023-08-25T19:53:06.395Z,10.20
2023-08-25T19:55:32.893Z,9.60
2023-08-25T19:57:59.380Z,10.70
2023-08-25T20:00:25.880Z,8.40
2023-08-25T20:02:52.628Z,8.40
2023-08-25T20:05:19.394Z,9.90
2023-08-25T20:07:45.906Z,9.30
2023-08-25T20:10:13.074Z,9.80
2023-08-25T20:12:39.731Z,10.80
2023-08-25T20:15:07.455Z,14.20
2023-08-25T20:17:34.677Z,16.30
2023-08-25T20:20:01.410Z,18.50
2023-08-25T20:22:28.255Z,15.60
2023-08-25T20:24:54.923Z,14.10
2023-08-25T20:27:21.647Z,12.30
2023-08-25T20:29:52.879Z,11.30
2023-08-25T20:32:20.904Z,11.90
2023-08-25T20:34:48.573Z,12.70
2023-08-25T20:37:15.411Z,13.30
2023-08-25T20:39:42.108Z,13.40
2023-08-25T20:42:08.546Z,11.90
2023-08-25T20:44:36.839Z,13.00
2023-08-25T20:47:03.466Z,12.80
2023-08-25T20:49:30.175Z,14.60
2023-08-25T20:51:56.933Z,15.60
2023-08-25T20:54:23.551Z,14.90
2023-08-25T20:56:50.113Z,15.40
2023-08-25T20:59:16.964Z,14.40
2023-08-25T21:01:43.920Z,13.80
2023-08-25T21:04:11.117Z,15.30
2023-08-25T21:06:38.578Z,13.90
2023-08-25T21:09:07.373Z,14.70
2023-08-25T21:11:33.970Z,12.70
2023-08-25T21:14:02.449Z,11.40
2023-08-25T21:16:37.119Z,12.00
2023-08-25T21:19:08.104Z,12.10
2023-08-25T21:21:39.321Z,11.40
2023-08-25T21:24:07.417Z,11.30
2023-08-25T21:26:34.259Z,11.20
2023-08-25T21:29:03.106Z,11.30
2023-08-25T21:31:30.648Z,11.80
2023-08-25T21:33:57.704Z,10.40
2023-08-25T21:36:24.323Z,10.90
2023-08-25T21:38:50.892Z,11.20
2023-08-25T21:41:17.339Z,11.30
2023-08-25T21:43:43.873Z,10.90
2023-08-25T21:46:10.484Z,10.70
2023-08-25T21:48:36.859Z,11.00
2023-08-25T21:51:03.487Z,10.00
2023-08-25T21:53:29.862Z,9.20
2023-08-25T21:55:56.570Z,9.80
2023-08-25T21:58:22.994Z,9.40
2023-08-25T22:00:50.746Z,9.90
2023-08-25T22:03:17.243Z,10.60
2023-08-25T22:05:43.827Z,10.60
2023-08-25T22:08:10.368Z,10.30
2023-08-25T22:10:37.225Z,10.50
2023-08-25T22:13:04.622Z,10.10
2023-08-25T22:15:32.297Z,11.10
2023-08-25T22:18:00.523Z,10.60
2023-08-25T22:20:27.468Z,10.80
2023-08-25T22:22:54.750Z,11.40
2023-08-25T22:25:21.637Z,10.90
2023-08-25T22:27:48.238Z,10.90
2023-08-25T22:30:14.799Z,11.60
2023-08-25T22:35:10.734Z,10.40
2023-08-25T22:37:37.185Z,11.70
2023-08-25T22:40:04.106Z,10.80
2023-08-25T22:42:30.796Z,11.40
2023-08-25T22:44:57.241Z,10.50
2023-08-25T22:47:23.785Z,10.30
2023-08-25T22:49:50.270Z,9.70
2023-08-25T22:52:16.854Z,9.90
2023-08-25T22:54:43.354Z,9.40
2023-08-25T22:57:09.747Z,11.10
2023-08-25T22:59:38.294Z,10.90
2023-08-25T23:02:04.900Z,11.00
2023-08-25T23:04:32.714Z,10.80
2023-08-25T23:06:59.120Z,9.60
2023-08-25T23:09:25.641Z,10.10
2023-08-25T23:11:52.123Z,9.50
2023-08-25T23:14:18.616Z,10.30
2023-08-25T23:16:45.801Z,10.70
2023-08-25T23:19:12.540Z,11.10
2023-08-25T23:21:40.000Z,9.60
2023-08-25T23:24:06.632Z,9.70
2023-08-25T23:26:34.639Z,9.40
2023-08-25T23:29:01.297Z,9.20
2023-08-25T23:31:27.730Z,8.90
2023-08-25T23:33:54.251Z,9.40
2023-08-25T23:36:20.761Z,10.20
2023-08-25T23:38:47.217Z,10.10
2023-08-25T23:41:13.738Z,10.20
2023-08-25T23:43:40.097Z,9.90
2023-08-25T23:46:09.152Z,9.30
2023-08-25T23:48:35.755Z,8.30
2023-08-25T23:51:03.897Z,8.90
2023-08-25T23:53:30.295Z,9.50
2023-08-25T23:55:56.759Z,9.00
2023-08-25T23:58:23.143Z,9.10
